Time;durP1;ratioP1;P1;durP2;ratioP2;P2;SDS_P1;SDS_P2;PMS_P1;PMS_P2;Temp;Humidity;BMP_temperature;BMP_pressure;BME280_temperature;BME280_humidity;BME280_pressure;Samples;Min_cycle;Max_cycle;Signal;HPM_P1;HPM_P2
2023/02/10 00:00:54;;;;;;;205.30;81.70;;;;;;;-7.05;84.27;100752.66;268966;1261;23826;-82
2023/02/10 00:07:00;;;;;;;209.40;80.80;;;;;;;-7.12;84.57;100745.84;269710;1263;25306;-82
2023/02/10 00:13:02;;;;;;;196.00;78.10;;;;;;;-7.23;84.61;100743.15;271813;1269;22468;-82
2023/02/10 00:19:03;;;;;;;219.80;83.40;;;;;;;-7.26;85.16;100737.92;273502;1269;22445;-82
2023/02/10 00:25:06;;;;;;;215.10;84.10;;;;;;;-7.33;85.30;100746.95;273221;1269;22618;-82
2023/02/10 00:31:11;;;;;;;226.10;86.90;;;;;;;-7.36;85.88;100759.74;271765;1266;22582;-82
2023/02/10 00:37:13;;;;;;;166.80;64.90;;;;;;;-7.36;86.07;100767.81;269931;1269;22904;-81
2023/02/10 00:43:15;;;;;;;217.70;82.80;;;;;;;-7.41;85.00;100766.90;269757;1259;22633;-81
2023/02/10 00:49:16;;;;;;;229.50;83.60;;;;;;;-7.46;85.66;100773.13;273157;1257;22419;-82
2023/02/10 00:55:18;;;;;;;219.70;84.20;;;;;;;-7.47;85.75;100763.50;273833;1266;22430;-81
2023/02/10 01:01:20;;;;;;;222.00;81.50;;;;;;;-7.53;85.58;100769.80;273678;1269;23835;-81
2023/02/10 01:07:21;;;;;;;210.30;82.20;;;;;;;-7.58;85.93;100768.41;272104;1267;22587;-84
2023/02/10 01:13:23;;;;;;;207.40;78.50;;;;;;;-7.53;86.41;100762.20;269842;1269;22565;-81
2023/02/10 01:19:25;;;;;;;206.90;82.20;;;;;;;-7.48;86.40;100750.54;270210;1269;25504;-81
2023/02/10 01:25:26;;;;;;;198.10;76.40;;;;;;;-7.53;86.12;100740.71;270715;1256;22888;-82
2023/02/10 01:31:28;;;;;;;197.60;75.60;;;;;;;-7.56;86.29;100741.45;273770;1272;22470;-81
2023/02/10 01:37:30;;;;;;;174.50;70.40;;;;;;;-7.63;86.04;100741.48;273598;1259;22229;-83
2023/02/10 01:43:32;;;;;;;147.20;58.70;;;;;;;-7.69;86.16;100729.61;273851;1269;22314;-81
2023/02/10 01:49:39;;;;;;;171.60;63.40;;;;;;;-7.69;86.23;100717.81;273584;1259;22458;-83
2023/02/10 01:55:45;;;;;;;165.10;64.90;;;;;;;-7.78;86.34;100715.32;273813;1262;22289;-82
2023/02/10 02:01:47;;;;;;;181.80;69.00;;;;;;;-7.88;86.49;100721.68;273891;1259;22209;-81
2023/02/10 02:07:49;;;;;;;184.40;67.90;;;;;;;-7.94;86.29;100723.94;273524;1260;22366;-80
2023/02/10 02:14:30;;;;;;;162.40;64.50;;;;;;;-7.94;86.13;100716.91;273741;1269;22336;-81
2023/02/10 02:20:40;;;;;;;167.20;66.10;;;;;;;-7.89;86.74;100714.77;273866;1259;22501;-80
2023/02/10 02:26:49;;;;;;;155.70;60.90;;;;;;;-7.88;86.42;100702.02;273835;1269;22211;-80
2023/02/10 02:33:02;;;;;;;166.90;61.00;;;;;;;-7.88;86.86;100696.74;273899;1269;22297;-81
2023/02/10 02:39:04;;;;;;;169.90;63.60;;;;;;;-7.86;87.09;100696.52;273821;1259;22510;-81
2023/02/10 02:45:16;;;;;;;178.20;65.50;;;;;;;-7.82;87.29;100697.45;272728;1269;23129;-80
2023/02/10 02:51:17;;;;;;;173.50;64.20;;;;;;;-7.87;87.16;100702.47;269941;1260;22566;-80
2023/02/10 02:57:22;;;;;;;191.80;69.10;;;;;;;-7.90;87.22;100699.33;270551;1256;22414;-80
2023/02/10 03:03:24;;;;;;;162.50;62.60;;;;;;;-7.94;87.33;100694.00;271991;1269;22646;-78
2023/02/10 03:09:26;;;;;;;144.10;52.30;;;;;;;-8.06;86.67;100695.92;270399;1269;22555;-80
2023/02/10 03:15:30;;;;;;;150.00;56.40;;;;;;;-8.22;87.01;100701.09;270021;1269;23402;-83
2023/02/10 03:21:33;;;;;;;169.60;63.00;;;;;;;-8.14;87.86;100704.09;269939;1259;22311;-79
2023/02/10 03:27:35;;;;;;;169.70;62.20;;;;;;;-8.06;88.06;100698.41;270096;1269;22561;-78
2023/02/10 03:33:37;;;;;;;134.60;54.90;;;;;;;-8.04;87.83;100708.65;271034;1269;23284;-79
2023/02/10 03:39:38;;;;;;;151.60;57.70;;;;;;;-8.10;87.71;100710.03;273771;1260;22600;-79
2023/02/10 03:45:40;;;;;;;157.10;59.50;;;;;;;-8.15;87.88;100708.46;271522;1258;23655;-79
2023/02/10 03:51:43;;;;;;;161.90;60.70;;;;;;;-8.13;88.11;100699.14;273104;1269;22976;-79
2023/02/10 03:57:46;;;;;;;150.20;59.00;;;;;;;-8.16;87.66;100700.30;273173;1269;22220;-81
2023/02/10 04:03:48;;;;;;;145.70;57.40;;;;;;;-8.18;88.11;100706.27;272874;1269;23124;-79
2023/02/10 04:09:49;;;;;;;120.20;46.60;;;;;;;-8.09;88.56;100716.36;273639;1269;22213;-80
2023/02/10 04:16:09;;;;;;;149.30;60.50;;;;;;;-8.08;88.07;100715.63;273476;1270;22399;-80
2023/02/10 04:22:10;;;;;;;150.40;56.00;;;;;;;-8.17;87.78;100722.65;273058;1270;23111;-80
2023/02/10 04:28:12;;;;;;;115.30;45.50;;;;;;;-8.20;88.08;100722.65;273359;1268;23206;-80
2023/02/10 04:34:14;;;;;;;145.90;52.10;;;;;;;-8.23;88.07;100730.44;272139;1260;22409;-80
2023/02/10 04:40:15;;;;;;;127.70;47.40;;;;;;;-8.22;88.18;100726.52;268799;1269;22656;-79
2023/02/10 04:46:17;;;;;;;139.40;50.80;;;;;;;-8.23;88.31;100732.16;272854;1269;25360;-80
2023/02/10 04:52:19;;;;;;;136.60;53.50;;;;;;;-8.20;88.54;100735.02;268739;1260;22646;-79
2023/02/10 04:58:21;;;;;;;131.90;51.10;;;;;;;-8.24;88.36;100736.53;268680;1269;25374;-80
2023/02/10 05:04:42;;;;;;;126.80;50.50;;;;;;;-8.30;88.21;100753.00;269940;1269;23852;-80
2023/02/10 05:10:44;;;;;;;134.00;51.00;;;;;;;-8.38;88.42;100755.33;269794;1259;23686;-80
2023/02/10 05:16:45;;;;;;;142.60;51.10;;;;;;;-8.35;88.92;100747.30;270703;1257;22500;-79
2023/02/10 05:22:47;;;;;;;130.60;51.70;;;;;;;-8.34;88.86;100754.21;272351;1269;22639;-79
2023/02/10 05:28:49;;;;;;;119.00;49.10;;;;;;;-8.31;89.17;100760.53;271285;1257;22621;-80
2023/02/10 05:34:51;;;;;;;118.30;48.30;;;;;;;-8.28;89.26;100764.39;272037;1269;22363;-80
2023/02/10 05:40:53;;;;;;;122.80;48.60;;;;;;;-8.38;88.48;100774.85;270244;1257;22570;-80
2023/02/10 05:46:55;;;;;;;115.80;48.60;;;;;;;-8.51;88.64;100779.96;270817;1269;22299;-80
2023/02/10 05:52:57;;;;;;;137.80;50.20;;;;;;;-8.51;89.07;100774.65;273642;1269;22351;-80
2023/02/10 05:58:58;;;;;;;139.40;53.10;;;;;;;-8.47;89.20;100776.76;273487;1269;22399;-79
2023/02/10 06:05:01;;;;;;;122.30;47.20;;;;;;;-8.48;89.00;100775.86;273728;1269;22377;-80
2023/02/10 06:11:03;;;;;;;132.80;52.00;;;;;;;-8.49;89.19;100776.81;273821;1256;23173;-78
2023/02/10 06:17:08;;;;;;;116.80;46.50;;;;;;;-8.50;89.06;100783.30;272287;1257;22635;-80
2023/02/10 06:23:10;;;;;;;;;;;;;;;-8.59;88.82;100796.04;270047;1269;22526;-80
2023/02/10 06:29:12;;;;;;;115.20;47.20;;;;;;;-8.55;89.66;100799.09;272960;1268;22233;-79
2023/02/10 06:35:14;;;;;;;124.80;50.40;;;;;;;-8.46;89.92;100797.27;273926;1257;23404;-80
2023/02/10 06:41:15;;;;;;;122.50;48.00;;;;;;;-8.35;90.15;100800.95;271496;1269;23088;-80
2023/02/10 06:47:17;;;;;;;114.30;47.00;;;;;;;-8.24;89.82;100798.34;273390;1269;22849;-80
2023/02/10 06:53:19;;;;;;;125.90;54.20;;;;;;;-7.93;91.14;100791.68;269396;1269;22545;-79
2023/02/10 06:59:21;;;;;;;119.60;47.80;;;;;;;-7.59;91.27;100797.55;269929;1269;22551;-79
2023/02/10 07:05:23;;;;;;;110.40;44.40;;;;;;;-7.34;91.31;100808.84;270005;1270;22561;-79
2023/02/10 07:11:25;;;;;;;110.30;45.40;;;;;;;-7.03;91.50;100809.92;270906;1269;23254;-81
2023/02/10 07:17:27;;;;;;;164.70;65.40;;;;;;;-6.80;91.66;100811.91;269781;1269;22563;-80
2023/02/10 07:23:28;;;;;;;164.90;65.40;;;;;;;-6.46;91.91;100820.65;270670;1269;22603;-80
2023/02/10 07:29:30;;;;;;;169.70;64.70;;;;;;;-6.01;92.57;100825.75;271680;1269;25491;-80
2023/02/10 07:35:32;;;;;;;162.50;66.20;;;;;;;-5.38;93.31;100820.08;270427;1268;24141;-81
2023/02/10 07:41:33;;;;;;;151.10;60.70;;;;;;;-4.63;93.65;100813.08;270186;1257;24055;-82
2023/02/10 07:47:36;;;;;;;152.00;61.30;;;;;;;-3.91;93.14;100814.71;269600;1269;22551;-82
2023/02/10 07:53:37;;;;;;;140.60;57.20;;;;;;;-3.34;92.13;100827.35;269531;1261;23418;-84
2023/02/10 07:59:39;;;;;;;100.10;44.30;;;;;;;-2.80;91.99;100828.91;270499;1267;22578;-82
2023/02/10 08:05:41;;;;;;;91.60;41.00;;;;;;;-2.18;91.86;100824.83;269753;1270;22539;-83
2023/02/10 08:11:46;;;;;;;90.30;39.70;;;;;;;-1.73;90.81;100835.34;271632;1269;22199;-82
2023/02/10 08:17:48;;;;;;;72.40;33.00;;;;;;;-1.27;90.89;100836.71;273143;1270;23127;-83
2023/02/10 08:23:56;;;;;;;70.30;30.50;;;;;;;-0.70;90.40;100833.16;272223;1260;25253;-83
2023/02/10 08:30:18;;;;;;;57.20;25.40;;;;;;;-0.24;89.20;100846.80;269813;1269;22537;-83
2023/02/10 08:36:30;;;;;;;59.00;27.10;;;;;;;0.12;88.43;100858.38;270940;1257;23157;-82
2023/02/10 08:42:35;;;;;;;59.30;27.40;;;;;;;0.49;87.20;100859.79;269498;1269;22839;-84
2023/02/10 08:48:37;;;;;;;61.80;27.40;;;;;;;1.02;87.21;100856.10;270676;1254;22609;-83
2023/02/10 08:54:38;;;;;;;66.90;32.50;;;;;;;1.69;86.31;100844.23;272695;1257;22443;-83
2023/02/10 09:00:40;;;;;;;62.00;30.90;;;;;;;2.43;85.81;100835.81;273785;1257;22348;-83
2023/02/10 09:06:43;;;;;;;55.40;26.20;;;;;;;3.15;84.87;100836.81;273785;1254;22338;-84
2023/02/10 09:12:45;;;;;;;59.60;26.60;;;;;;;3.71;82.95;100840.90;273783;1265;23278;-84
2023/02/10 09:18:46;;;;;;;49.10;24.90;;;;;;;4.04;81.65;100846.52;273742;1269;22560;-84
2023/02/10 09:24:50;;;;;;;49.80;25.80;;;;;;;4.20;79.30;100850.58;273764;1259;279571;-85
2023/02/10 09:30:52;;;;;;;57.00;28.00;;;;;;;4.17;77.43;100854.78;273663;1269;22335;-84
2023/02/10 09:36:57;;;;;;;60.30;29.90;;;;;;;3.97;77.38;100852.55;273750;1269;22414;-85
2023/02/10 09:43:25;;;;;;;59.60;29.90;;;;;;;4.22;78.60;100851.80;273739;1269;23186;-86
2023/02/10 09:50:01;;;;;;;58.00;29.50;;;;;;;4.94;78.50;100842.94;273756;1269;22955;-85
2023/02/10 09:56:04;;;;;;;70.00;34.10;;;;;;;5.39;77.23;100833.25;273984;1269;22819;-85
2023/02/10 10:02:28;;;;;;;60.40;31.50;;;;;;;5.50;75.94;100843.16;272626;1261;23492;-85
2023/02/10 10:09:10;;;;;;;67.50;34.80;;;;;;;5.54;75.35;100839.34;270884;1269;22566;-85
2023/02/10 10:15:17;;;;;;;63.30;33.30;;;;;;;6.02;75.05;100836.38;270101;1269;22571;-85
2023/02/10 10:21:32;;;;;;;55.40;29.10;;;;;;;5.89;73.53;100829.20;272572;1260;25367;-85
2023/02/10 10:27:47;;;;;;;58.40;28.40;;;;;;;5.82;72.67;100826.34;272074;1269;22604;-86
2023/02/10 10:34:09;;;;;;;59.50;28.30;;;;;;;5.95;72.03;100815.83;271511;1269;24260;-85
2023/02/10 10:40:22;;;;;;;49.20;26.50;;;;;;;6.25;73.00;100809.19;271261;1259;22232;-86
2023/02/10 10:46:44;;;;;;;44.30;24.20;;;;;;;6.70;71.79;100804.28;273331;1269;22334;-86
2023/02/10 10:52:53;;;;;;;47.50;24.40;;;;;;;6.36;70.96;100799.29;271092;1259;24234;-84
2023/02/10 10:58:55;;;;;;;47.20;24.40;;;;;;;6.22;70.08;100793.54;270002;1269;23069;-85
2023/02/10 11:05:14;;;;;;;43.00;22.30;;;;;;;5.91;70.30;100791.80;270081;1269;22573;-86
2023/02/10 11:11:16;;;;;;;36.50;19.90;;;;;;;5.82;69.45;100778.72;269765;1266;23863;-86
2023/02/10 11:17:32;;;;;;;38.60;18.20;;;;;;;5.74;68.92;100772.59;269811;1269;22556;-85
2023/02/10 11:23:52;;;;;;;38.80;18.80;;;;;;;5.65;69.21;100770.55;269746;1269;25907;-85
2023/02/10 11:29:58;;;;;;;28.20;15.50;;;;;;;5.64;69.08;100771.48;269580;1263;22533;-82
2023/02/10 11:36:32;;;;;;;25.70;14.80;;;;;;;5.49;67.95;100768.16;269603;1254;22537;-85
2023/02/10 11:42:40;;;;;;;28.00;13.90;;;;;;;5.29;67.21;100762.49;270982;1269;22358;-85
2023/02/10 11:48:54;;;;;;;22.20;14.20;;;;;;;5.26;67.18;100754.08;271169;1269;23183;-84
2023/02/10 11:54:57;;;;;;;28.90;14.50;;;;;;;5.07;66.37;100751.17;269442;1269;22616;-86
2023/02/10 12:01:19;;;;;;;27.60;14.10;;;;;;;4.80;65.96;100755.09;270245;1265;23291;-87
2023/02/10 12:07:34;;;;;;;24.50;13.20;;;;;;;4.62;65.27;100755.44;270031;1269;23455;-87
2023/02/10 12:13:45;;;;;;;24.90;13.70;;;;;;;4.62;65.37;100753.77;270217;1269;22555;-86
2023/02/10 12:20:25;;;;;;;25.00;13.90;;;;;;;4.55;65.17;100759.57;273265;1257;23625;-87
2023/02/10 12:26:33;;;;;;;28.30;16.20;;;;;;;4.39;65.24;100754.85;273164;1269;22454;-87
2023/02/10 12:32:54;;;;;;;29.40;14.70;;;;;;;4.22;64.98;100753.52;271668;1260;22759;-88
2023/02/10 12:39:19;;;;;;;36.90;18.60;;;;;;;3.98;65.55;100758.63;270120;1269;22773;-88
2023/02/10 12:45:31;;;;;;;32.90;17.70;;;;;;;3.86;66.30;100758.00;270471;1269;22558;-89
2023/02/10 12:51:58;;;;;;;31.20;17.40;;;;;;;3.78;66.34;100757.55;270419;1269;24523;-88
2023/02/10 12:58:14;;;;;;;41.90;20.30;;;;;;;3.66;66.47;100759.31;272695;1254;23008;-88
2023/02/10 13:04:23;;;;;;;39.10;20.00;;;;;;;3.48;66.38;100762.20;271482;1269;22527;-88
2023/02/10 13:10:42;;;;;;;36.90;19.70;;;;;;;3.27;66.34;100781.02;271390;1269;22734;-88
2023/02/10 13:16:51;;;;;;;42.20;21.50;;;;;;;3.15;66.85;100783.66;271181;1267;22681;-87
2023/02/10 13:23:17;;;;;;;38.70;20.30;;;;;;;3.14;66.96;100771.92;269710;1269;22571;-87
2023/02/10 13:29:41;;;;;;;42.60;22.10;;;;;;;3.15;66.50;100764.13;269796;1269;22559;-88
2023/02/10 13:35:44;;;;;;;40.40;19.70;;;;;;;3.14;66.84;100761.70;269394;1262;22417;-86
2023/02/10 13:41:50;;;;;;;39.00;20.60;;;;;;;3.14;67.06;100775.27;270679;1269;22339;-87
2023/02/10 13:47:55;;;;;;;34.30;18.90;;;;;;;3.21;67.03;100779.71;270873;1266;23676;-86
2023/02/10 13:53:57;;;;;;;41.50;19.00;;;;;;;3.24;66.88;100779.59;273395;1268;23004;-87
2023/02/10 14:00:12;;;;;;;32.70;17.20;;;;;;;3.13;66.83;100787.79;270078;1256;22540;-89
2023/02/10 14:06:14;;;;;;;28.30;16.10;;;;;;;3.05;67.33;100783.70;271611;1268;22533;-88
2023/02/10 14:12:26;;;;;;;29.70;15.10;;;;;;;2.98;67.75;100785.85;271201;1259;22852;-89
2023/02/10 14:18:31;;;;;;;32.70;15.10;;;;;;;2.86;68.47;100787.29;271353;1269;22510;-87
2023/02/10 14:24:43;;;;;;;26.80;12.70;;;;;;;2.72;68.99;100791.11;270556;1268;22571;-88
2023/02/10 14:30:46;;;;;;;27.90;12.90;;;;;;;2.58;69.96;100788.17;273031;1268;22638;-88
2023/02/10 14:36:59;;;;;;;23.60;12.70;;;;;;;2.48;70.49;100788.88;270428;1262;22571;-89
2023/02/10 14:43:01;;;;;;;22.20;12.00;;;;;;;2.42;71.19;100791.39;271182;1268;23847;-89
2023/02/10 14:49:09;;;;;;;24.60;12.10;;;;;;;2.35;71.59;100800.30;272499;1269;22322;-89
2023/02/10 14:55:26;;;;;;;23.10;13.10;;;;;;;2.27;72.04;100814.39;271778;1268;22462;-89
2023/02/10 15:01:38;;;;;;;28.80;13.20;;;;;;;2.17;72.34;100829.43;273703;1268;23270;-88
2023/02/10 15:07:46;;;;;;;40.30;19.70;;;;;;;2.09;72.66;100829.74;270935;1269;22655;-88
2023/02/10 15:13:48;;;;;;;42.70;21.30;;;;;;;1.99;72.91;100839.01;272389;1267;22431;-89
2023/02/10 15:19:57;;;;;;;44.20;22.90;;;;;;;1.87;73.08;100845.52;273417;1256;22301;-89
2023/02/10 15:26:07;;;;;;;64.40;29.70;;;;;;;1.73;72.71;100853.20;273347;1268;22411;-89
2023/02/10 15:32:21;;;;;;;56.80;27.30;;;;;;;1.62;72.60;100861.91;273556;1269;22663;-89
2023/02/10 15:38:23;;;;;;;60.10;28.00;;;;;;;1.51;72.55;100865.89;273391;1268;22338;-89
2023/02/10 15:44:41;;;;;;;63.00;28.70;;;;;;;1.42;72.59;100863.80;273665;1268;22402;-89
2023/02/10 15:50:43;;;;;;;57.60;27.50;;;;;;;1.33;72.81;100869.73;273595;1256;22337;-89
2023/02/10 15:57:05;;;;;;;57.40;27.70;;;;;;;1.24;73.07;100875.48;273641;1269;23315;-88
2023/02/10 16:03:07;;;;;;;63.40;30.00;;;;;;;1.16;73.66;100867.08;271455;1269;22327;-89
2023/02/10 16:09:10;;;;;;;60.20;28.80;;;;;;;1.13;73.47;100858.82;271176;1268;22328;-89
2023/02/10 16:15:14;;;;;;;51.40;25.90;;;;;;;1.12;73.61;100864.80;271703;1269;22577;-88
2023/02/10 16:21:16;;;;;;;53.30;25.60;;;;;;;1.14;73.98;100866.09;270150;1260;25348;-89
2023/02/10 16:27:18;;;;;;;51.20;25.60;;;;;;;1.13;74.52;100873.97;271958;1269;22320;-89
2023/02/10 16:33:20;;;;;;;52.70;25.80;;;;;;;1.10;74.44;100876.39;271480;1269;22578;-89
2023/02/10 16:39:26;;;;;;;61.90;28.90;;;;;;;1.02;74.32;100869.52;272445;1268;23546;-89
2023/02/10 16:45:30;;;;;;;38.60;18.00;;;;;;;0.95;74.73;100873.66;273208;1269;22517;-88
2023/02/10 16:51:34;;;;;;;55.60;25.40;;;;;;;0.94;75.07;100891.96;270162;1260;22587;-88
2023/02/10 16:57:36;;;;;;;48.30;23.80;;;;;;;0.92;75.32;100896.42;270354;1269;22574;-89
2023/02/10 17:03:38;;;;;;;59.00;27.20;;;;;;;0.88;75.55;100889.19;269854;1269;22548;-89
2023/02/10 17:09:40;;;;;;;61.50;30.40;;;;;;;0.87;75.47;100884.92;270344;1269;23768;-89
2023/02/10 17:15:43;;;;;;;70.70;30.90;;;;;;;0.89;75.43;100885.89;269955;1269;22566;-88
2023/02/10 17:21:45;;;;;;;75.10;33.30;;;;;;;0.90;75.40;100894.63;270372;1255;25418;-90
2023/02/10 17:27:49;;;;;;;75.50;34.30;;;;;;;0.90;75.26;100894.48;270846;1269;25385;-89
2023/02/10 17:33:51;;;;;;;86.10;36.10;;;;;;;0.89;75.68;100886.92;262780;1262;10001398;-90
2023/02/10 17:40:07;;;;;;;81.00;34.50;;;;;;;0.89;75.73;100892.42;272290;1269;23132;-91
2023/02/10 17:46:11;;;;;;;72.20;32.40;;;;;;;0.90;75.44;100889.52;270202;1269;22566;-89
2023/02/10 17:52:13;;;;;;;85.20;36.20;;;;;;;0.89;75.57;100889.02;270969;1267;22227;-90
2023/02/10 17:58:17;;;;;;;81.40;36.70;;;;;;;0.87;75.64;100889.29;270844;1269;23890;-88
2023/02/10 18:04:24;;;;;;;78.70;36.20;;;;;;;0.84;75.66;100889.50;272734;1269;22345;-89
2023/02/10 18:10:26;;;;;;;72.20;34.80;;;;;;;0.83;75.55;100885.88;272117;1262;22562;-89
2023/02/10 18:16:29;;;;;;;99.60;43.80;;;;;;;0.80;76.18;100877.89;271926;1269;23136;-89
2023/02/10 18:22:33;;;;;;;99.30;46.00;;;;;;;0.77;76.04;100874.81;271696;1270;23375;-89
2023/02/10 18:28:35;;;;;;;93.50;43.50;;;;;;;0.74;75.94;100865.47;273027;1269;23272;-90
2023/02/10 18:34:39;;;;;;;97.70;42.00;;;;;;;0.71;76.25;100869.40;273219;1269;22306;-89
2023/02/10 18:40:42;;;;;;;96.10;42.40;;;;;;;0.70;76.46;100865.68;273294;1269;22213;-90
2023/02/10 18:46:43;;;;;;;82.30;38.00;;;;;;;0.70;76.76;100860.55;273011;1269;22599;-90
2023/02/10 18:52:46;;;;;;;73.30;35.70;;;;;;;0.71;76.98;100859.85;270570;1269;23830;-89
2023/02/10 18:58:48;;;;;;;83.80;37.90;;;;;;;0.73;76.90;100855.65;271017;1269;23395;-90
2023/02/10 19:04:50;;;;;;;85.70;36.70;;;;;;;0.74;77.12;100862.89;271128;1269;24279;-89
2023/02/10 19:10:52;;;;;;;86.40;36.70;;;;;;;0.75;77.16;100865.74;272452;1269;23545;-91
2023/02/10 19:16:54;;;;;;;84.30;39.80;;;;;;;0.73;77.27;100866.50;273467;1269;22233;-89
2023/02/10 19:22:55;;;;;;;69.50;33.00;;;;;;;0.73;77.48;100873.28;273574;1269;22341;-90
2023/02/10 19:28:58;;;;;;;84.30;40.00;;;;;;;0.68;77.62;100869.73;272131;1268;22583;-89
2023/02/10 19:35:00;;;;;;;86.50;41.40;;;;;;;0.64;77.80;100870.88;270796;1269;23346;-89
2023/02/10 19:41:16;;;;;;;86.30;38.60;;;;;;;0.62;77.97;100866.02;273263;1269;22337;-89
2023/02/10 19:47:18;;;;;;;95.10;45.10;;;;;;;0.61;78.06;100866.13;273470;1269;22315;-90
2023/02/10 19:53:20;;;;;;;88.20;42.90;;;;;;;0.60;78.26;100873.14;273287;1269;23143;-89
2023/02/10 19:59:22;;;;;;;83.00;39.40;;;;;;;0.58;78.57;100868.34;272712;1269;23580;-89
2023/02/10 20:05:24;;;;;;;88.60;40.20;;;;;;;0.56;78.75;100864.13;273624;1256;22465;-89
2023/02/10 20:11:26;;;;;;;94.40;41.70;;;;;;;0.55;78.98;100863.20;273405;1268;23415;-88
2023/02/10 20:17:28;;;;;;;90.90;42.20;;;;;;;0.52;79.26;100871.06;273442;1266;22313;-89
2023/02/10 20:23:30;;;;;;;94.00;43.50;;;;;;;0.50;78.98;100869.70;273217;1269;22201;-89
2023/02/10 20:29:33;;;;;;;92.30;43.20;;;;;;;0.51;78.98;100861.09;273393;1270;23552;-89
2023/02/10 20:35:36;;;;;;;91.50;41.70;;;;;;;0.52;79.07;100862.71;273583;1269;22359;-89
2023/02/10 20:41:38;;;;;;;89.70;40.50;;;;;;;0.51;79.49;100857.46;271706;1269;22557;-89
2023/02/10 20:47:40;;;;;;;90.60;44.00;;;;;;;0.52;79.17;100845.58;271879;1269;22564;-88
2023/02/10 20:53:44;;;;;;;102.70;45.10;;;;;;;0.51;79.17;100835.55;271268;1269;22549;-89
2023/02/10 20:59:45;;;;;;;95.50;42.80;;;;;;;0.52;79.44;100831.34;270867;1269;23492;-89
2023/02/10 21:05:49;;;;;;;91.20;42.60;;;;;;;0.50;79.75;100823.73;272062;1269;22614;-89
2023/02/10 21:11:51;;;;;;;93.80;43.30;;;;;;;0.50;79.75;100828.20;273461;1266;22833;-89
2023/02/10 21:17:53;;;;;;;92.90;41.70;;;;;;;0.48;79.89;100829.76;272934;1269;22868;-89
2023/02/10 21:23:55;;;;;;;105.10;44.40;;;;;;;0.44;79.74;100827.38;272985;1269;22205;-89
2023/02/10 21:29:57;;;;;;;100.30;45.50;;;;;;;0.35;80.23;100817.32;272145;1269;104525;-88
2023/02/10 21:35:59;;;;;;;95.40;44.80;;;;;;;0.31;80.68;100809.70;273438;1263;22275;-89
2023/02/10 21:42:01;;;;;;;91.90;40.50;;;;;;;0.29;80.78;100799.73;273507;1260;22758;-89
2023/02/10 21:48:04;;;;;;;91.90;42.60;;;;;;;0.29;81.11;100801.67;273230;1269;23146;-89
2023/02/10 21:54:06;;;;;;;99.50;45.00;;;;;;;0.26;81.17;100803.82;270513;1256;22535;-88
2023/02/10 22:00:09;;;;;;;100.50;45.40;;;;;;;0.23;81.37;100797.13;269423;1269;22553;-88
2023/02/10 22:06:11;;;;;;;101.10;47.10;;;;;;;0.19;81.23;100792.59;269985;1269;22569;-88
2023/02/10 22:12:13;;;;;;;108.40;48.10;;;;;;;0.05;81.29;100789.88;270114;1266;23029;-88
2023/02/10 22:18:14;;;;;;;119.20;51.50;;;;;;;-0.12;81.51;100799.50;270805;1270;22335;-87
2023/02/10 22:24:17;;;;;;;97.50;47.60;;;;;;;-0.31;81.59;100802.73;271294;1262;22540;-87
2023/02/10 22:30:19;;;;;;;107.60;50.00;;;;;;;-0.50;81.84;100801.69;270605;1267;22603;-87
2023/02/10 22:36:20;;;;;;;113.40;48.40;;;;;;;-0.70;81.86;100781.05;271387;1270;22370;-87
2023/02/10 22:42:22;;;;;;;104.40;49.20;;;;;;;-0.92;81.73;100758.23;273669;1269;22344;-87
2023/02/10 22:48:24;;;;;;;103.60;48.30;;;;;;;-1.05;82.61;100752.33;273427;1270;22331;-86
2023/02/10 22:54:27;;;;;;;98.80;43.30;;;;;;;-1.14;82.52;100749.09;273711;1267;22207;-87
2023/02/10 23:00:28;;;;;;;93.70;42.20;;;;;;;-1.21;82.73;100762.35;270416;1269;22573;-87
2023/02/10 23:06:31;;;;;;;80.10;36.00;;;;;;;-1.28;82.91;100755.63;271534;1269;22319;-87
2023/02/10 23:12:32;;;;;;;78.50;36.70;;;;;;;-1.39;82.33;100739.52;273477;1269;22354;-87
2023/02/10 23:18:34;;;;;;;78.00;34.90;;;;;;;-1.49;82.82;100737.73;271508;1269;22572;-86
2023/02/10 23:24:37;;;;;;;80.00;36.10;;;;;;;-1.53;83.63;100744.54;272175;1269;22568;-87
2023/02/10 23:30:38;;;;;;;77.20;36.00;;;;;;;-1.61;83.29;100735.38;270729;1270;22540;-85
2023/02/10 23:36:40;;;;;;;77.40;35.90;;;;;;;-1.72;83.14;100732.20;270854;1269;22326;-86
2023/02/10 23:42:42;;;;;;;81.30;37.10;;;;;;;-1.82;83.07;100725.81;273131;1269;22659;-87
2023/02/10 23:48:44;;;;;;;79.50;35.40;;;;;;;-1.97;83.50;100728.06;270804;1269;22564;-86
2023/02/10 23:54:46;;;;;;;80.20;38.40;;;;;;;-2.03;84.42;100726.49;270669;1270;22591;-87
